Time;durP1;ratioP1;P1;durP2;ratioP2;P2;SDS_P1;SDS_P2;PMS_P1;PMS_P2;Temp;Humidity;BMP_temperature;BMP_pressure;BME280_temperature;BME280_humidity;BME280_pressure;Samples;Min_cycle;Max_cycle;Signal;HPM_P1;HPM_P2
2023/12/29 00:00:35;;;;;;;27.17;10.10;;;;;;;5.23;100.00;97938.13;5133182;27;20019;-70
2023/12/29 00:03:00;;;;;;;26.58;9.85;;;;;;;5.12;100.00;97938.47;5126396;27;20026;-70
2023/12/29 00:05:27;;;;;;;25.08;11.32;;;;;;;5.14;100.00;97949.00;5133929;27;20062;-68
2023/12/29 00:07:53;;;;;;;27.80;11.80;;;;;;;4.95;100.00;97938.19;5133190;27;20058;-69
2023/12/29 00:10:18;;;;;;;28.40;12.13;;;;;;;4.93;100.00;97951.47;5127263;27;20482;-69
2023/12/29 00:12:44;;;;;;;26.35;12.88;;;;;;;5.03;100.00;97919.38;5112120;27;20034;-69
2023/12/29 00:15:10;;;;;;;23.90;11.95;;;;;;;5.07;100.00;97931.59;5128836;27;20023;-69
2023/12/29 00:17:37;;;;;;;30.30;12.07;;;;;;;5.06;100.00;97932.50;5095844;28;20029;-69
2023/12/29 00:20:07;;;;;;;30.55;13.60;;;;;;;5.12;100.00;97934.97;5113186;28;20094;-68
2023/12/29 00:22:33;;;;;;;29.02;11.48;;;;;;;5.07;100.00;97936.91;5113476;27;20031;-70
2023/12/29 00:24:59;;;;;;;30.33;12.73;;;;;;;4.96;100.00;97936.38;5111933;27;20058;-69
2023/12/29 00:27:25;;;;;;;30.48;12.60;;;;;;;4.89;100.00;97947.19;5126545;27;20517;-69
2023/12/29 00:29:51;;;;;;;30.27;13.93;;;;;;;4.88;100.00;97937.53;5150347;27;20026;-69
2023/12/29 00:32:16;;;;;;;46.75;18.42;;;;;;;4.89;100.00;97931.28;5119519;28;20494;-69
2023/12/29 00:34:42;;;;;;;52.42;21.05;;;;;;;4.98;100.00;97934.56;5095834;28;20100;-70
2023/12/29 00:37:08;;;;;;;43.08;15.75;;;;;;;5.00;100.00;97922.13;5112878;28;20026;-68
2023/12/29 00:39:38;;;;;;;32.25;14.77;;;;;;;5.19;100.00;97925.88;5095979;28;20027;-68
2023/12/29 00:42:05;;;;;;;24.48;11.68;;;;;;;5.10;100.00;97923.56;5096412;28;20038;-70
2023/12/29 00:44:31;;;;;;;28.17;11.63;;;;;;;4.93;100.00;97927.63;5113192;28;20027;-68
2023/12/29 00:46:57;;;;;;;22.20;8.85;;;;;;;4.83;100.00;97926.19;5115028;27;20038;-68
2023/12/29 00:49:22;;;;;;;18.27;8.48;;;;;;;4.76;100.00;97929.97;5133527;27;20053;-71
2023/12/29 00:51:48;;;;;;;17.88;7.60;;;;;;;4.70;100.00;97921.38;5115235;28;20038;-69
2023/12/29 00:54:14;;;;;;;16.67;7.65;;;;;;;4.66;100.00;97923.25;5135765;27;20031;-69
2023/12/29 00:56:39;;;;;;;22.63;7.95;;;;;;;4.62;100.00;97926.03;5133426;27;20117;-69
2023/12/29 00:59:05;;;;;;;17.42;8.10;;;;;;;4.56;100.00;97924.44;5115881;27;20126;-69
2023/12/29 01:01:35;;;;;;;19.88;7.72;;;;;;;4.54;100.00;97923.66;5126419;28;20031;-69
2023/12/29 01:04:01;;;;;;;18.70;7.88;;;;;;;4.70;100.00;97930.19;5114956;27;20057;-69
2023/12/29 01:06:26;;;;;;;13.60;6.32;;;;;;;4.63;100.00;97928.63;5148000;27;20047;-69
2023/12/29 01:08:52;;;;;;;19.65;7.63;;;;;;;4.64;100.00;97929.50;5099534;28;20054;-70
2023/12/29 01:11:18;;;;;;;23.52;7.93;;;;;;;4.56;100.00;97929.75;5116784;27;20023;-70
2023/12/29 01:13:43;;;;;;;17.92;7.40;;;;;;;4.52;100.00;97929.91;5099534;27;20486;-70
2023/12/29 01:16:09;;;;;;;18.27;7.95;;;;;;;4.50;100.00;97927.28;5087769;28;20023;-70
2023/12/29 01:18:36;;;;;;;42.22;15.18;;;;;;;4.41;100.00;97924.94;5114501;28;20044;-70
2023/12/29 01:21:01;;;;;;;28.05;11.43;;;;;;;4.43;100.00;97936.34;5095880;27;20043;-69
2023/12/29 01:23:27;;;;;;;29.73;13.95;;;;;;;4.33;100.00;97929.63;5128534;27;20152;-69
2023/12/29 01:25:53;;;;;;;38.53;17.40;;;;;;;4.35;100.00;97938.38;5090163;28;20459;-69
2023/12/29 01:28:18;;;;;;;34.47;14.73;;;;;;;4.38;100.00;97935.63;5095851;28;20035;-69
2023/12/29 01:30:44;;;;;;;38.20;16.58;;;;;;;4.29;100.00;97927.97;5130418;27;20031;-69
2023/12/29 01:33:09;;;;;;;40.53;16.90;;;;;;;4.24;100.00;97932.56;5099042;27;20486;-69
2023/12/29 01:35:35;;;;;;;48.10;19.20;;;;;;;4.17;100.00;97931.88;5084608;28;20058;-69
2023/12/29 01:38:02;;;;;;;43.25;18.77;;;;;;;4.15;100.00;97930.19;5095722;28;20382;-69
2023/12/29 01:40:28;;;;;;;48.63;20.17;;;;;;;4.22;100.00;97937.00;5122595;27;20055;-68
2023/12/29 01:42:53;;;;;;;42.38;18.23;;;;;;;4.24;100.00;97932.56;5103992;27;20100;-69
2023/12/29 01:45:23;;;;;;;42.00;17.30;;;;;;;4.39;100.00;97945.31;5116010;27;20033;-68
2023/12/29 01:47:50;;;;;;;40.35;16.48;;;;;;;4.48;100.00;97945.03;5098911;27;20574;-69
2023/12/29 01:50:17;;;;;;;40.17;17.50;;;;;;;4.40;100.00;97944.38;5090161;27;20475;-68
2023/12/29 01:52:44;;;;;;;42.30;17.83;;;;;;;4.28;100.00;97942.09;5097436;27;20031;-68
2023/12/29 01:55:12;;;;;;;40.25;17.48;;;;;;;4.26;100.00;97955.41;5091474;27;20019;-69
2023/12/29 01:57:40;;;;;;;40.45;17.00;;;;;;;4.20;100.00;97960.03;5101582;27;20023;-68
2023/12/29 02:00:07;;;;;;;42.13;17.00;;;;;;;4.18;100.00;97962.69;5111222;27;20027;-69
2023/12/29 02:02:32;;;;;;;33.97;15.00;;;;;;;4.10;100.00;97953.25;5098084;28;20028;-69
2023/12/29 02:05:00;;;;;;;35.50;15.25;;;;;;;4.12;100.00;97954.09;5106417;27;20504;-70
2023/12/29 02:07:30;;;;;;;33.35;14.40;;;;;;;4.04;100.00;97950.81;5092853;27;20054;-68
2023/12/29 02:09:57;;;;;;;31.98;14.82;;;;;;;3.98;100.00;97956.28;5098459;27;20067;-69
2023/12/29 02:12:23;;;;;;;30.52;13.00;;;;;;;3.87;100.00;97939.84;5134016;27;20019;-69
2023/12/29 02:14:48;;;;;;;36.53;14.55;;;;;;;3.87;100.00;97939.84;5098229;27;20498;-69
2023/12/29 02:17:22;;;;;;;29.98;14.45;;;;;;;3.87;100.00;97942.50;5113683;27;20031;-68
2023/12/29 02:19:51;;;;;;;30.40;14.95;;;;;;;3.76;100.00;97940.16;5115197;27;20030;-69
2023/12/29 02:22:17;;;;;;;28.13;12.88;;;;;;;3.66;100.00;97942.19;5115484;27;20035;-68
2023/12/29 02:24:46;;;;;;;28.40;12.00;;;;;;;3.61;100.00;97938.81;5098023;27;20019;-68
2023/12/29 02:27:30;;;;;;;26.33;10.70;;;;;;;3.57;100.00;97934.50;5097978;27;20114;-68
2023/12/29 02:30:14;;;;;;;27.35;10.95;;;;;;;3.57;100.00;97938.97;5114925;27;20026;-68
2023/12/29 02:32:42;;;;;;;22.17;10.05;;;;;;;3.54;100.00;97946.94;5126932;27;20085;-69
2023/12/29 02:35:14;;;;;;;29.20;13.25;;;;;;;3.50;100.00;97937.38;5097687;27;20475;-69
2023/12/29 02:37:40;;;;;;;28.25;13.43;;;;;;;3.44;100.00;97935.78;5097987;27;20076;-68
2023/12/29 02:40:08;;;;;;;26.98;12.23;;;;;;;3.34;100.00;97939.59;5114566;27;20443;-70
2023/12/29 02:42:33;;;;;;;31.75;11.80;;;;;;;3.26;100.00;97936.28;5097843;27;20023;-68
2023/12/29 02:45:06;;;;;;;26.63;12.45;;;;;;;3.10;100.00;97916.47;5133015;27;20027;-70
2023/12/29 02:47:32;;;;;;;30.95;11.73;;;;;;;3.24;100.00;97932.81;5098608;27;20026;-68
2023/12/29 02:49:57;;;;;;;24.33;10.88;;;;;;;3.15;100.00;97917.19;5114615;27;20023;-68
2023/12/29 02:52:23;;;;;;;23.75;10.07;;;;;;;3.05;100.00;97910.41;5132763;27;20030;-69
2023/12/29 02:54:49;;;;;;;25.95;10.68;;;;;;;3.11;100.00;97920.81;5097699;27;20021;-69
2023/12/29 02:57:14;;;;;;;24.50;11.10;;;;;;;3.06;100.00;97922.72;5097474;27;20032;-68
2023/12/29 02:59:40;;;;;;;21.42;10.68;;;;;;;3.07;100.00;97916.53;5133081;27;20019;-68
2023/12/29 03:02:06;;;;;;;31.58;13.05;;;;;;;3.04;100.00;97911.34;5114578;27;20438;-70
2023/12/29 03:04:31;;;;;;;28.88;12.00;;;;;;;3.10;100.00;97908.53;5114231;27;20027;-69
2023/12/29 03:06:57;;;;;;;28.38;12.82;;;;;;;3.14;100.00;97915.44;5087856;28;20035;-68
2023/12/29 03:09:22;;;;;;;24.55;11.13;;;;;;;3.18;100.00;97912.69;5110785;27;20039;-69
2023/12/29 03:11:48;;;;;;;26.83;11.75;;;;;;;3.17;100.00;97907.44;5093232;27;20103;-69
2023/12/29 03:14:15;;;;;;;21.15;10.43;;;;;;;3.10;100.00;97895.31;5123964;27;20031;-69
2023/12/29 03:16:41;;;;;;;24.08;11.07;;;;;;;3.12;100.00;97901.41;5114172;27;20402;-70
2023/12/29 03:19:06;;;;;;;24.20;10.75;;;;;;;3.13;100.00;97896.09;5115448;27;20035;-70
2023/12/29 03:21:32;;;;;;;20.83;9.82;;;;;;;3.13;100.00;97890.81;5121181;27;20035;-70
2023/12/29 03:23:57;;;;;;;23.77;10.93;;;;;;;3.12;100.00;97891.72;5114627;27;20020;-68
2023/12/29 03:26:23;;;;;;;23.83;10.25;;;;;;;3.11;100.00;97889.09;5103207;27;20071;-70
2023/12/29 03:28:49;;;;;;;21.73;10.10;;;;;;;3.10;100.00;97888.25;5118654;27;20469;-70
2023/12/29 03:31:15;;;;;;;24.45;10.00;;;;;;;3.11;100.00;97889.09;5093537;28;20486;-70
2023/12/29 03:33:41;;;;;;;28.00;12.88;;;;;;;2.97;100.00;97885.97;5093527;28;20042;-69
2023/12/29 03:36:07;;;;;;;22.73;11.75;;;;;;;2.88;100.00;97886.22;5111641;27;20481;-68
2023/12/29 03:38:33;;;;;;;25.73;10.88;;;;;;;2.91;100.00;97897.56;5083302;28;20058;-69
2023/12/29 03:40:59;;;;;;;28.92;12.63;;;;;;;2.85;100.00;97881.00;5120304;27;20058;-69
2023/12/29 03:43:24;;;;;;;30.25;13.40;;;;;;;2.73;100.00;97874.28;5093246;28;20114;-69
2023/12/29 03:45:50;;;;;;;27.88;12.20;;;;;;;2.73;100.00;97887.50;5079198;28;20042;-69
2023/12/29 03:48:15;;;;;;;29.58;12.63;;;;;;;2.81;100.00;97895.19;5106720;27;20030;-69
2023/12/29 03:50:41;;;;;;;30.27;12.75;;;;;;;2.70;100.00;97899.00;5110814;27;20076;-69
2023/12/29 03:53:07;;;;;;;25.58;12.02;;;;;;;2.73;100.00;97904.22;5088126;27;20109;-69
2023/12/29 03:55:32;;;;;;;23.85;11.05;;;;;;;2.82;100.00;97910.16;5100594;27;20037;-69
2023/12/29 03:57:58;;;;;;;23.27;11.10;;;;;;;2.74;100.00;97900.63;5128076;27;20043;-69
2023/12/29 04:00:24;;;;;;;32.67;12.63;;;;;;;2.72;100.00;97907.75;5096443;27;20023;-69
2023/12/29 04:02:49;;;;;;;28.70;12.32;;;;;;;2.63;100.00;97909.75;5110727;27;20038;-69
2023/12/29 04:05:15;;;;;;;26.48;11.80;;;;;;;2.70;100.00;97917.50;5108671;27;20027;-70
2023/12/29 04:07:40;;;;;;;27.70;12.13;;;;;;;2.69;100.00;97913.09;5106282;28;20050;-70
2023/12/29 04:10:08;;;;;;;27.10;12.55;;;;;;;2.69;100.00;97915.75;5113022;27;20092;-70
2023/12/29 04:12:33;;;;;;;64.05;21.20;;;;;;;2.67;100.00;97917.56;5110811;27;20428;-70
2023/12/29 04:14:59;;;;;;;96.95;41.63;;;;;;;2.53;100.00;97909.09;5113203;27;20102;-69
2023/12/29 04:17:25;;;;;;;127.90;49.17;;;;;;;2.53;100.00;97911.75;5110121;27;20023;-69
2023/12/29 04:19:50;;;;;;;124.55;46.85;;;;;;;2.57;100.00;97926.59;5112966;27;20110;-69
2023/12/29 04:22:16;;;;;;;120.32;49.15;;;;;;;2.51;100.00;97916.19;5111654;28;20026;-69
2023/12/29 04:24:41;;;;;;;85.97;34.15;;;;;;;2.43;100.00;97923.41;5111589;27;20030;-71
2023/12/29 04:27:07;;;;;;;61.30;28.55;;;;;;;2.26;100.00;97922.97;5095841;28;20490;-69
2023/12/29 04:29:33;;;;;;;53.03;22.85;;;;;;;2.23;100.00;97932.72;5106563;28;20027;-69
2023/12/29 04:31:58;;;;;;;46.63;20.20;;;;;;;2.17;100.00;97936.38;5112891;28;20039;-69
2023/12/29 04:34:24;;;;;;;41.88;16.98;;;;;;;2.10;100.00;97932.13;5112281;28;20028;-70
2023/12/29 04:36:49;;;;;;;47.55;18.08;;;;;;;2.00;100.00;97930.59;5111691;28;20099;-70
2023/12/29 04:39:15;;;;;;;47.28;18.42;;;;;;;1.93;100.00;97931.63;5112802;27;20347;-69
2023/12/29 04:41:41;;;;;;;40.17;16.70;;;;;;;1.95;100.00;97924.53;5130044;27;20343;-70
2023/12/29 04:44:06;;;;;;;44.55;17.63;;;;;;;1.99;100.00;97935.00;5112997;27;20027;-69
2023/12/29 04:46:32;;;;;;;33.45;16.40;;;;;;;1.96;100.00;97934.22;5114308;27;20027;-70
2023/12/29 04:48:57;;;;;;;37.78;16.50;;;;;;;1.96;100.00;97935.09;5111493;27;20023;-70
2023/12/29 04:51:23;;;;;;;36.95;16.35;;;;;;;1.91;100.00;97922.88;5125172;27;20110;-70
2023/12/29 04:53:48;;;;;;;36.40;16.08;;;;;;;2.04;100.00;97924.34;5115570;27;20049;-69
2023/12/29 04:56:14;;;;;;;34.78;14.65;;;;;;;2.10;100.00;97929.47;5099689;27;20027;-69
2023/12/29 04:58:40;;;;;;;43.75;17.75;;;;;;;2.00;100.00;97912.97;5113968;27;20027;-70
2023/12/29 05:01:05;;;;;;;53.83;17.80;;;;;;;1.99;100.00;97918.31;5099708;27;20023;-70
2023/12/29 05:03:31;;;;;;;47.35;18.65;;;;;;;1.99;100.00;97919.19;5132937;27;20023;-69
2023/12/29 05:05:56;;;;;;;37.05;17.33;;;;;;;1.95;100.00;97914.00;5115955;27;20518;-70
2023/12/29 05:08:22;;;;;;;46.38;18.95;;;;;;;1.94;100.00;97921.03;5134380;27;20033;-70
2023/12/29 05:10:49;;;;;;;40.72;17.42;;;;;;;1.97;100.00;97920.13;5137264;27;20028;-71
2023/12/29 05:13:14;;;;;;;35.58;16.02;;;;;;;1.92;100.00;97916.69;5136860;27;20044;-70
2023/12/29 05:15:40;;;;;;;37.38;15.13;;;;;;;1.94;100.00;97926.31;5136714;27;20429;-70
2023/12/29 05:18:05;;;;;;;39.67;16.60;;;;;;;1.87;100.00;97924.72;5154988;27;20023;-69
2023/12/29 05:20:31;;;;;;;29.42;13.63;;;;;;;1.78;100.00;97935.47;5138043;27;20470;-69
2023/12/29 05:22:57;;;;;;;28.60;13.43;;;;;;;1.73;100.00;97933.81;5132790;27;20015;-70
2023/12/29 05:25:24;;;;;;;37.22;15.30;;;;;;;1.64;100.00;97927.84;5129000;27;20090;-70
2023/12/29 05:27:50;;;;;;;38.88;15.32;;;;;;;1.67;100.00;97928.66;5118936;27;20506;-70
2023/12/29 05:30:16;;;;;;;36.90;15.68;;;;;;;1.82;100.00;97941.53;5150453;27;20061;-70
2023/12/29 05:32:41;;;;;;;36.65;16.45;;;;;;;1.87;100.00;97939.69;5119593;27;20054;-69
2023/12/29 05:35:07;;;;;;;29.73;14.98;;;;;;;1.69;100.00;97924.25;5136475;27;20018;-70
2023/12/29 05:37:33;;;;;;;37.28;17.08;;;;;;;1.84;100.00;97939.75;5136562;27;20453;-70
2023/12/29 05:40:01;;;;;;;44.25;18.48;;;;;;;1.90;100.00;97939.63;5132292;27;20027;-70
2023/12/29 05:42:26;;;;;;;49.22;18.75;;;;;;;1.92;100.00;97937.81;5115889;27;20027;-71
2023/12/29 05:44:52;;;;;;;45.30;20.52;;;;;;;1.93;100.00;97935.16;5135381;27;20059;-71
2023/12/29 05:47:18;;;;;;;45.63;19.98;;;;;;;1.96;100.00;97940.34;5136368;27;20030;-70
2023/12/29 05:49:43;;;;;;;46.92;21.73;;;;;;;2.02;100.00;97934.06;5118899;27;20030;-70
2023/12/29 05:52:09;;;;;;;49.60;23.73;;;;;;;2.00;100.00;97943.78;5118417;27;20501;-70
2023/12/29 05:54:35;;;;;;;58.70;22.33;;;;;;;1.90;100.00;97935.22;5136252;27;20358;-71
2023/12/29 05:57:01;;;;;;;49.22;22.90;;;;;;;2.05;100.00;97944.56;5150263;27;20027;-69
2023/12/29 05:59:26;;;;;;;63.63;26.25;;;;;;;2.09;100.00;97954.16;5136045;27;20029;-69
2023/12/29 06:01:52;;;;;;;97.55;42.22;;;;;;;1.96;100.00;97940.34;5116797;27;20032;-70
2023/12/29 06:04:18;;;;;;;155.23;60.92;;;;;;;1.95;100.00;97945.66;5112541;27;20046;-70
2023/12/29 06:06:44;;;;;;;137.38;55.10;;;;;;;1.78;100.00;97945.16;5135888;27;20034;-70
2023/12/29 06:09:10;;;;;;;149.30;57.72;;;;;;;1.82;100.00;97939.75;5110296;27;20450;-70
2023/12/29 06:11:36;;;;;;;149.52;55.90;;;;;;;1.76;100.00;97939.03;5124534;27;20024;-69
2023/12/29 06:14:03;;;;;;;151.38;51.72;;;;;;;1.77;100.00;97946.03;5145998;27;20039;-70
2023/12/29 06:16:30;;;;;;;141.52;53.65;;;;;;;1.76;100.00;97936.38;5119476;27;20031;-71
2023/12/29 06:18:56;;;;;;;161.20;54.33;;;;;;;1.76;100.00;97937.25;5127496;27;20410;-70
2023/12/29 06:21:21;;;;;;;79.97;35.38;;;;;;;1.55;100.00;97920.13;5128895;27;20038;-69
2023/12/29 06:23:48;;;;;;;74.32;31.40;;;;;;;1.61;100.00;97930.53;5098898;28;20042;-70
2023/12/29 06:26:17;;;;;;;78.28;32.00;;;;;;;1.69;100.00;97943.56;5119785;27;20026;-70
2023/12/29 06:28:44;;;;;;;77.82;32.58;;;;;;;1.72;100.00;97945.28;5085597;28;20507;-72
2023/12/29 06:31:09;;;;;;;94.80;34.70;;;;;;;1.68;100.00;97940.97;5118661;27;20019;-71
2023/12/29 06:33:35;;;;;;;90.03;31.10;;;;;;;1.76;100.00;97949.56;5119556;27;20050;-71
2023/12/29 06:36:01;;;;;;;74.22;31.50;;;;;;;1.71;100.00;97947.03;5125489;27;20031;-71
2023/12/29 06:38:27;;;;;;;81.90;33.72;;;;;;;1.66;100.00;97924.31;5135086;27;20034;-72
2023/12/29 06:40:52;;;;;;;102.45;36.97;;;;;;;1.71;100.00;97957.59;5153926;27;20068;-71
2023/12/29 06:43:18;;;;;;;97.55;34.95;;;;;;;1.81;100.00;97960.91;5117718;27;20027;-71
2023/12/29 06:45:44;;;;;;;96.32;36.83;;;;;;;1.74;100.00;97959.28;5133991;27;20395;-72
2023/12/29 06:48:09;;;;;;;97.38;36.88;;;;;;;1.83;100.00;97962.59;5131334;27;20022;-72
2023/12/29 06:50:36;;;;;;;103.68;41.33;;;;;;;1.95;100.00;97980.81;5092837;27;20027;-71
2023/12/29 06:53:03;;;;;;;95.72;34.50;;;;;;;2.52;100.00;97981.28;5110375;27;20015;-71
2023/12/29 06:55:28;;;;;;;63.55;26.70;;;;;;;3.90;100.00;97961.81;5127127;27;20030;-71
2023/12/29 06:57:54;;;;;;;59.78;27.30;;;;;;;5.38;100.00;97938.44;5129568;27;20023;-70
2023/12/29 07:00:20;;;;;;;79.82;38.60;;;;;;;6.94;100.00;97939.56;5106025;28;20103;-70
2023/12/29 07:02:45;;;;;;;42.90;20.75;;;;;;;8.00;100.00;97926.91;5092932;28;20020;-72
2023/12/29 07:05:11;;;;;;;41.67;21.10;;;;;;;7.94;100.00;97921.84;5111644;28;20030;-72
2023/12/29 07:07:37;;;;;;;74.38;30.35;;;;;;;7.88;100.00;97915.00;5098402;27;20505;-72
2023/12/29 07:10:04;;;;;;;70.90;32.05;;;;;;;8.77;100.00;97903.75;5109914;27;20043;-72
2023/12/29 07:12:29;;;;;;;60.03;27.40;;;;;;;9.88;96.18;97909.53;5095523;27;20039;-72
2023/12/29 07:14:55;;;;;;;41.05;20.42;;;;;;;11.01;85.38;97892.50;5097022;27;20501;-72
2023/12/29 07:17:21;;;;;;;47.00;21.92;;;;;;;12.05;73.75;97904.03;5110443;28;20046;-73
2023/12/29 07:19:46;;;;;;;38.72;19.85;;;;;;;11.94;68.36;97891.28;5113093;27;20030;-71
2023/12/29 07:22:12;;;;;;;50.42;22.45;;;;;;;12.07;67.91;97906.63;5110074;27;20575;-72
2023/12/29 07:24:38;;;;;;;47.47;21.33;;;;;;;12.55;67.22;97898.16;5109646;27;20023;-69
2023/12/29 07:27:04;;;;;;;48.55;23.85;;;;;;;12.57;65.23;97900.75;5114178;27;20102;-72
2023/12/29 07:29:30;;;;;;;35.22;18.50;;;;;;;12.38;66.14;97896.56;5092565;27;20459;-72
2023/12/29 07:31:56;;;;;;;39.28;20.98;;;;;;;12.05;68.01;97893.31;5113421;27;20180;-73
2023/12/29 07:34:21;;;;;;;48.65;20.15;;;;;;;11.96;71.38;97901.94;5132394;27;20106;-72
2023/12/29 07:36:47;;;;;;;35.97;20.30;;;;;;;12.83;70.11;97898.09;5113894;27;20110;-73
2023/12/29 07:39:13;;;;;;;48.35;23.63;;;;;;;13.50;62.88;97875.66;5132192;27;20193;-73
2023/12/29 07:41:41;;;;;;;54.03;22.85;;;;;;;13.07;62.84;97884.03;5103373;28;20480;-72
2023/12/29 07:44:06;;;;;;;51.67;25.92;;;;;;;12.91;65.05;97903.84;5111334;28;20031;-73
2023/12/29 07:46:32;;;;;;;84.32;41.08;;;;;;;13.59;63.09;97893.00;5120298;27;20041;-72
2023/12/29 07:48:58;;;;;;;63.05;32.67;;;;;;;14.58;60.24;97887.72;5109587;27;20019;-72
2023/12/29 07:51:23;;;;;;;59.50;30.70;;;;;;;15.66;56.63;97880.47;5108998;27;20031;-72
2023/12/29 07:53:49;;;;;;;69.97;28.42;;;;;;;15.50;53.95;97863.78;5108928;27;20015;-71
2023/12/29 07:56:14;;;;;;;56.17;26.52;;;;;;;15.11;56.26;97885.59;5131390;27;20067;-73
2023/12/29 07:58:40;;;;;;;55.22;27.05;;;;;;;15.52;55.07;97882.50;5113108;27;20023;-71
2023/12/29 08:01:06;;;;;;;58.75;25.40;;;;;;;16.33;53.42;97885.13;5113074;27;20023;-71
2023/12/29 08:03:31;;;;;;;54.45;26.10;;;;;;;16.57;51.74;97885.91;5100784;28;20023;-70
2023/12/29 08:05:59;;;;;;;41.00;23.02;;;;;;;16.94;50.32;97883.75;5114580;27;20060;-71
2023/12/29 08:08:25;;;;;;;47.97;23.88;;;;;;;16.32;51.61;97900.47;5133510;27;20023;-72
2023/12/29 08:10:50;;;;;;;45.88;26.58;;;;;;;16.33;52.07;97896.78;5133113;27;20034;-72
2023/12/29 08:13:16;;;;;;;56.30;27.88;;;;;;;16.60;51.03;97902.72;5152005;27;20030;-71
2023/12/29 08:15:42;;;;;;;66.95;34.35;;;;;;;16.76;49.75;97895.06;5133160;27;20087;-72
2023/12/29 08:18:09;;;;;;;63.00;34.25;;;;;;;17.21;48.90;97905.81;5151991;27;20026;-72
2023/12/29 08:20:34;;;;;;;72.00;39.03;;;;;;;17.57;47.29;97897.34;5112600;27;20056;-72
2023/12/29 08:23:02;;;;;;;77.88;38.55;;;;;;;16.97;47.57;97897.03;5132976;27;20110;-72
2023/12/29 08:25:29;;;;;;;63.80;30.02;;;;;;;16.79;47.47;97899.38;5126356;27;20097;-73
2023/12/29 08:27:56;;;;;;;50.83;29.15;;;;;;;16.94;48.37;97903.53;5129751;27;20048;-73
2023/12/29 08:30:21;;;;;;;47.88;26.85;;;;;;;17.47;46.58;97896.38;5131524;27;20030;-72
2023/12/29 08:32:47;;;;;;;46.92;22.17;;;;;;;17.77;45.94;97907.34;5133160;27;20023;-73
2023/12/29 08:35:13;;;;;;;38.75;21.63;;;;;;;18.34;45.11;97897.88;5128844;27;20030;-72
2023/12/29 08:37:38;;;;;;;46.05;22.38;;;;;;;18.57;43.96;97904.88;5142977;27;20538;-72
2023/12/29 08:40:04;;;;;;;;;;;;;;;18.59;46.25;97913.72;5133351;27;20087;-71
2023/12/29 08:42:29;;;;;;;;;;;;;;;19.29;43.13;97891.94;5133725;27;19949;-71
2023/12/29 08:44:55;;;;;;;;;;;;;;;18.52;43.45;97901.69;5128780;27;19915;-71
2023/12/29 08:47:20;;;;;;;;;;;;;;;18.29;44.65;97908.25;5116383;27;20365;-72
2023/12/29 08:49:48;;;;;;;;;;;;;;;17.33;46.40;97915.59;5133183;27;19940;-71
2023/12/29 08:52:14;;;;;;;;;;;;;;;17.67;46.10;97914.53;5116915;27;20379;-72
2023/12/29 08:54:39;;;;;;;27.52;12.85;;;;;;;17.54;45.94;97912.94;5133469;27;19914;-73
2023/12/29 08:57:06;;;;;;;21.50;11.43;;;;;;;18.13;45.01;97911.44;5151538;27;20026;-70
2023/12/29 08:59:32;;;;;;;17.98;9.65;;;;;;;17.74;45.32;97909.44;5151826;27;20027;-70
2023/12/29 09:01:58;;;;;;;20.25;10.20;;;;;;;18.13;45.02;97913.28;5151418;27;20450;-71
2023/12/29 09:04:23;;;;;;;18.70;8.52;;;;;;;18.71;43.55;97907.22;5133112;27;20413;-79
2023/12/29 09:06:49;;;;;;;16.23;9.30;;;;;;;19.42;42.43;97889.00;5128858;27;20133;-74
2023/12/29 09:09:15;;;;;;;23.42;9.40;;;;;;;19.71;45.56;97902.59;5151830;27;20027;-71
2023/12/29 09:11:42;;;;;;;14.38;7.43;;;;;;;19.36;44.62;97892.25;5151628;27;20030;-72
2023/12/29 09:14:07;;;;;;;15.75;8.82;;;;;;;20.06;43.97;97891.16;5151528;27;20026;-71
2023/12/29 09:16:35;;;;;;;19.33;8.82;;;;;;;20.83;42.07;97883.59;5133282;27;20500;-70
2023/12/29 09:19:00;;;;;;;17.95;9.75;;;;;;;21.14;41.02;97873.31;5133075;27;20435;-71
2023/12/29 09:21:26;;;;;;;14.63;8.27;;;;;;;22.43;38.51;97875.34;5132839;27;20063;-71
2023/12/29 09:23:52;;;;;;;21.13;8.50;;;;;;;22.63;37.59;97876.84;5151466;27;20023;-71
2023/12/29 09:26:18;;;;;;;11.98;7.80;;;;;;;23.02;36.98;97870.91;5129513;27;20113;-72
2023/12/29 09:28:44;;;;;;;22.65;10.38;;;;;;;22.86;36.81;97876.28;5136639;27;20117;-70
2023/12/29 09:31:10;;;;;;;30.98;13.98;;;;;;;23.34;36.14;97861.97;5125848;27;20106;-70
2023/12/29 09:33:36;;;;;;;24.17;11.75;;;;;;;23.15;36.70;97858.53;5134774;27;20102;-72
2023/12/29 09:36:02;;;;;;;28.88;14.43;;;;;;;23.00;36.43;97856.59;5131459;27;20042;-70
2023/12/29 09:38:28;;;;;;;22.13;11.82;;;;;;;23.01;35.52;97856.41;5134395;27;20022;-71
2023/12/29 09:40:56;;;;;;;21.35;12.63;;;;;;;22.78;35.80;97848.97;5134196;27;20023;-70
2023/12/29 09:43:21;;;;;;;28.17;12.30;;;;;;;23.55;34.86;97846.00;5136599;27;20421;-70
2023/12/29 09:45:47;;;;;;;22.00;13.45;;;;;;;23.29;34.92;97839.78;5155036;27;20023;-71
2023/12/29 09:48:13;;;;;;;26.35;12.40;;;;;;;23.78;34.22;97848.94;5131557;27;20031;-71
2023/12/29 09:50:39;;;;;;;26.25;13.02;;;;;;;23.88;33.65;97844.13;5133353;27;20083;-70
2023/12/29 09:53:06;;;;;;;24.50;12.32;;;;;;;24.01;33.50;97848.09;5132764;27;20023;-71
2023/12/29 09:55:36;;;;;;;18.85;11.05;;;;;;;24.33;32.37;97835.44;5131379;27;20389;-71
2023/12/29 09:58:01;;;;;;;18.92;11.07;;;;;;;24.77;31.66;97828.44;5131461;27;20398;-71
2023/12/29 10:00:27;;;;;;;20.92;11.20;;;;;;;24.93;31.56;97822.09;5136479;27;20386;-72
2023/12/29 10:02:54;;;;;;;21.52;11.48;;;;;;;24.46;32.57;97824.78;5154722;27;20024;-71
2023/12/29 10:05:19;;;;;;;25.13;11.43;;;;;;;25.28;31.38;97822.44;5132938;27;20023;-71
2023/12/29 10:07:46;;;;;;;19.67;10.13;;;;;;;25.23;31.42;97816.63;5132442;27;20509;-71
2023/12/29 10:10:16;;;;;;;21.50;10.70;;;;;;;24.73;31.86;97816.19;5135854;27;20097;-71
2023/12/29 10:12:41;;;;;;;17.65;10.20;;;;;;;24.65;31.32;97791.56;5135987;27;20018;-73
2023/12/29 10:15:12;;;;;;;20.20;10.32;;;;;;;24.67;31.50;97795.00;5118581;27;20045;-71
2023/12/29 10:18:06;;;;;;;21.60;11.63;;;;;;;24.60;31.67;97793.97;5128464;27;20054;-72
2023/12/29 10:20:50;;;;;;;31.23;19.92;;;;;;;24.68;31.98;97791.19;5154173;27;20031;-72
2023/12/29 10:23:43;;;;;;;37.28;21.50;;;;;;;24.90;31.73;97778.66;5153910;27;20118;-71
2023/12/29 10:26:11;;;;;;;37.50;19.83;;;;;;;24.59;31.48;97779.44;5153694;27;20022;-71
2023/12/29 10:28:37;;;;;;;21.80;11.85;;;;;;;24.64;31.66;97778.94;5135534;27;20042;-72
2023/12/29 10:31:04;;;;;;;22.05;11.65;;;;;;;24.45;31.81;97779.34;5117957;27;20469;-71
2023/12/29 10:33:32;;;;;;;22.30;12.90;;;;;;;23.91;32.82;97773.59;5135393;27;20494;-73
2023/12/29 10:36:03;;;;;;;24.58;13.00;;;;;;;24.22;32.62;97771.88;5135215;27;20023;-71
2023/12/29 10:38:31;;;;;;;24.47;12.97;;;;;;;24.63;32.09;97766.28;5131012;27;20396;-70
2023/12/29 10:41:19;;;;;;;18.10;11.05;;;;;;;25.02;31.49;97758.91;5132011;27;20122;-69
2023/12/29 10:43:52;;;;;;;22.48;12.15;;;;;;;25.38;31.12;97752.88;5118306;27;20082;-71
2023/12/29 10:46:18;;;;;;;20.80;11.20;;;;;;;25.66;30.77;97746.66;5135018;27;20030;-71
2023/12/29 10:48:43;;;;;;;18.90;11.27;;;;;;;25.71;31.00;97746.13;5131928;27;20030;-71
2023/12/29 10:51:10;;;;;;;36.70;13.30;;;;;;;26.00;30.25;97740.69;5130021;27;20052;-71
2023/12/29 10:53:36;;;;;;;21.33;10.85;;;;;;;25.79;30.19;97741.41;5134996;27;20018;-71
2023/12/29 10:56:02;;;;;;;64.03;44.50;;;;;;;25.99;30.22;97741.75;5153709;27;20441;-70
2023/12/29 10:58:29;;;;;;;35.50;19.27;;;;;;;26.22;29.80;97728.81;5134585;27;20078;-71
2023/12/29 11:00:59;;;;;;;24.05;11.07;;;;;;;26.13;30.11;97732.66;5135221;27;20477;-72
2023/12/29 11:03:25;;;;;;;18.63;11.32;;;;;;;26.00;29.96;97729.72;5134919;27;20091;-71
2023/12/29 11:05:58;;;;;;;20.02;11.38;;;;;;;25.93;30.18;97717.81;5153189;27;20026;-71
2023/12/29 11:08:24;;;;;;;24.20;12.05;;;;;;;26.94;29.34;97712.50;5117100;27;20512;-72
2023/12/29 11:10:50;;;;;;;20.02;11.43;;;;;;;27.11;28.93;97713.09;5133407;27;20023;-72
2023/12/29 11:13:16;;;;;;;23.48;11.95;;;;;;;26.84;29.49;97701.81;5134837;27;20087;-70
2023/12/29 11:15:44;;;;;;;17.42;11.02;;;;;;;27.76;28.57;97701.91;5132586;27;20019;-71